Terminal Aerodrome Forecast
Issued by NWS Blacksburg, VA

Home | Current Version | Previous Version | Text Only | Print | Product List | Glossary On
Versions: 1 2 3 4 5 6 7 8 9 10 11 12 13 14 15 16 17 18 19 20 21 22 23 24 25 26 27 28 29 30 31 32 33 34 35 36 37 38 39 40
000
FTUS41 KRNK 220540
TAFLYH
TAF
KLYH 220540Z 2206/2306 02003KT P6SM BKN090
      TEMPO 2206/2210 4SM BR SCT005
     FM221000 VRB03KT 6SM BR SCT035 BKN090
      TEMPO 2210/2214 5SM -SHRA BKN035
     FM221430 29005KT P6SM SCT050 BKN110
     FM221900 30007KT P6SM VCTS SCT050CB BKN120
      AMD NOT SKED=

USA.gov is the U.S. government's official web portal to all federal, state and local government web resources and services.